sensor_id;sensor_type;location;lat;lon;timestamp;P1;durP1;ratioP1;P2;durP2;ratioP2
54823;SDS011;40724;53.196;5.980;2023-03-01T00:00:50;18.70;;;11.90;;
54823;SDS011;40724;53.196;5.980;2023-03-01T00:03:17;18.38;;;10.60;;
54823;SDS011;40724;53.196;5.980;2023-03-01T00:05:44;19.27;;;12.02;;
54823;SDS011;40724;53.196;5.980;2023-03-01T00:08:10;17.90;;;11.52;;
54823;SDS011;40724;53.196;5.980;2023-03-01T00:10:36;16.52;;;11.35;;
54823;SDS011;40724;53.196;5.980;2023-03-01T00:13:03;18.48;;;12.13;;
54823;SDS011;40724;53.196;5.980;2023-03-01T00:15:30;14.75;;;10.70;;
54823;SDS011;40724;53.196;5.980;2023-03-01T00:17:57;15.40;;;10.23;;
54823;SDS011;40724;53.196;5.980;2023-03-01T00:20:23;17.73;;;10.27;;
54823;SDS011;40724;53.196;5.980;2023-03-01T00:22:49;17.08;;;10.85;;
54823;SDS011;40724;53.196;5.980;2023-03-01T00:25:15;16.92;;;11.13;;
54823;SDS011;40724;53.196;5.980;2023-03-01T00:27:41;13.55;;;9.73;;
54823;SDS011;40724;53.196;5.980;2023-03-01T00:30:08;16.05;;;11.35;;
54823;SDS011;40724;53.196;5.980;2023-03-01T00:32:34;14.68;;;10.07;;
54823;SDS011;40724;53.196;5.980;2023-03-01T00:35:00;16.92;;;10.73;;
54823;SDS011;40724;53.196;5.980;2023-03-01T00:37:26;15.82;;;11.73;;
54823;SDS011;40724;53.196;5.980;2023-03-01T00:39:52;17.58;;;11.10;;
54823;SDS011;40724;53.196;5.980;2023-03-01T00:42:18;17.20;;;11.00;;
54823;SDS011;40724;53.196;5.980;2023-03-01T00:44:45;17.05;;;10.38;;
54823;SDS011;40724;53.196;5.980;2023-03-01T00:47:11;15.35;;;9.77;;
54823;SDS011;40724;53.196;5.980;2023-03-01T00:49:37;13.30;;;10.02;;
54823;SDS011;40724;53.196;5.980;2023-03-01T00:52:03;17.13;;;11.85;;
54823;SDS011;40724;53.196;5.980;2023-03-01T00:54:29;16.65;;;10.95;;
54823;SDS011;40724;53.196;5.980;2023-03-01T00:56:55;14.30;;;10.68;;
54823;SDS011;40724;53.196;5.980;2023-03-01T00:59:21;18.05;;;11.70;;
54823;SDS011;40724;53.196;5.980;2023-03-01T01:01:48;17.63;;;11.32;;
54823;SDS011;40724;53.196;5.980;2023-03-01T01:04:14;19.00;;;11.98;;
54823;SDS011;40724;53.196;5.980;2023-03-01T01:06:41;17.70;;;11.43;;
54823;SDS011;40724;53.196;5.980;2023-03-01T01:09:09;16.42;;;11.63;;
54823;SDS011;40724;53.196;5.980;2023-03-01T01:11:42;15.57;;;10.95;;
54823;SDS011;40724;53.196;5.980;2023-03-01T01:14:08;17.23;;;12.10;;
54823;SDS011;40724;53.196;5.980;2023-03-01T01:16:34;21.00;;;13.68;;
54823;SDS011;40724;53.196;5.980;2023-03-01T01:19:00;15.75;;;10.35;;
54823;SDS011;40724;53.196;5.980;2023-03-01T01:21:27;17.20;;;10.80;;
54823;SDS011;40724;53.196;5.980;2023-03-01T01:23:53;21.00;;;11.27;;
54823;SDS011;40724;53.196;5.980;2023-03-01T01:26:21;18.40;;;12.13;;
54823;SDS011;40724;53.196;5.980;2023-03-01T01:28:47;18.88;;;11.05;;
54823;SDS011;40724;53.196;5.980;2023-03-01T01:31:14;16.48;;;10.02;;
54823;SDS011;40724;53.196;5.980;2023-03-01T01:33:40;21.42;;;12.20;;
54823;SDS011;40724;53.196;5.980;2023-03-01T01:36:07;15.60;;;10.98;;
54823;SDS011;40724;53.196;5.980;2023-03-01T01:38:33;18.55;;;11.52;;
54823;SDS011;40724;53.196;5.980;2023-03-01T01:41:00;17.73;;;11.18;;
54823;SDS011;40724;53.196;5.980;2023-03-01T01:43:27;21.50;;;12.27;;
54823;SDS011;40724;53.196;5.980;2023-03-01T01:45:58;18.83;;;10.70;;
54823;SDS011;40724;53.196;5.980;2023-03-01T01:48:28;16.90;;;10.70;;
54823;SDS011;40724;53.196;5.980;2023-03-01T01:51:05;18.33;;;10.80;;
54823;SDS011;40724;53.196;5.980;2023-03-01T01:53:32;17.60;;;12.07;;
54823;SDS011;40724;53.196;5.980;2023-03-01T01:55:58;15.18;;;10.25;;
54823;SDS011;40724;53.196;5.980;2023-03-01T01:58:27;16.05;;;8.18;;
54823;SDS011;40724;53.196;5.980;2023-03-01T02:00:55;13.70;;;7.05;;
54823;SDS011;40724;53.196;5.980;2023-03-01T02:03:26;10.63;;;6.68;;
54823;SDS011;40724;53.196;5.980;2023-03-01T02:05:57;11.57;;;6.72;;
54823;SDS011;40724;53.196;5.980;2023-03-01T02:08:26;20.70;;;8.35;;
54823;SDS011;40724;53.196;5.980;2023-03-01T02:10:55;21.85;;;7.72;;
54823;SDS011;40724;53.196;5.980;2023-03-01T02:13:22;38.42;;;11.15;;
54823;SDS011;40724;53.196;5.980;2023-03-01T02:15:48;16.20;;;8.50;;
54823;SDS011;40724;53.196;5.980;2023-03-01T02:18:16;22.90;;;8.40;;
54823;SDS011;40724;53.196;5.980;2023-03-01T02:20:45;73.35;;;14.75;;
54823;SDS011;40724;53.196;5.980;2023-03-01T02:23:14;79.30;;;16.48;;
54823;SDS011;40724;53.196;5.980;2023-03-01T02:25:51;115.35;;;17.48;;
54823;SDS011;40724;53.196;5.980;2023-03-01T02:28:31;70.50;;;14.75;;
54823;SDS011;40724;53.196;5.980;2023-03-01T02:30:58;73.45;;;13.65;;
54823;SDS011;40724;53.196;5.980;2023-03-01T02:33:43;69.18;;;13.18;;
54823;SDS011;40724;53.196;5.980;2023-03-01T02:36:10;76.32;;;13.10;;
54823;SDS011;40724;53.196;5.980;2023-03-01T02:38:39;95.13;;;15.35;;
54823;SDS011;40724;53.196;5.980;2023-03-01T02:41:05;98.72;;;14.00;;
54823;SDS011;40724;53.196;5.980;2023-03-01T02:43:32;150.57;;;19.80;;
54823;SDS011;40724;53.196;5.980;2023-03-01T02:46:02;122.78;;;18.88;;
54823;SDS011;40724;53.196;5.980;2023-03-01T02:48:37;80.63;;;13.93;;
54823;SDS011;40724;53.196;5.980;2023-03-01T02:56:15;28.35;;;9.55;;
54823;SDS011;40724;53.196;5.980;2023-03-01T02:58:42;49.63;;;11.45;;
54823;SDS011;40724;53.196;5.980;2023-03-01T03:01:16;13.43;;;5.78;;
54823;SDS011;40724;53.196;5.980;2023-03-01T03:03:42;9.90;;;6.22;;
54823;SDS011;40724;53.196;5.980;2023-03-01T03:06:08;18.48;;;7.70;;
54823;SDS011;40724;53.196;5.980;2023-03-01T03:08:34;27.00;;;7.13;;
54823;SDS011;40724;53.196;5.980;2023-03-01T03:11:00;7.60;;;5.28;;
54823;SDS011;40724;53.196;5.980;2023-03-01T03:13:26;7.57;;;5.32;;
54823;SDS011;40724;53.196;5.980;2023-03-01T03:15:56;34.70;;;7.82;;
54823;SDS011;40724;53.196;5.980;2023-03-01T03:18:23;60.28;;;13.70;;
54823;SDS011;40724;53.196;5.980;2023-03-01T03:20:53;30.20;;;8.00;;
54823;SDS011;40724;53.196;5.980;2023-03-01T03:23:20;14.85;;;6.72;;
54823;SDS011;40724;53.196;5.980;2023-03-01T03:25:50;9.13;;;5.88;;
54823;SDS011;40724;53.196;5.980;2023-03-01T03:28:16;12.93;;;6.50;;
54823;SDS011;40724;53.196;5.980;2023-03-01T03:30:43;10.73;;;5.45;;
54823;SDS011;40724;53.196;5.980;2023-03-01T03:33:10;17.58;;;6.20;;
54823;SDS011;40724;53.196;5.980;2023-03-01T03:35:44;13.50;;;6.88;;
54823;SDS011;40724;53.196;5.980;2023-03-01T03:38:12;37.97;;;10.63;;
54823;SDS011;40724;53.196;5.980;2023-03-01T03:40:46;57.72;;;11.77;;
54823;SDS011;40724;53.196;5.980;2023-03-01T03:43:13;30.10;;;9.07;;
54823;SDS011;40724;53.196;5.980;2023-03-01T03:45:40;65.45;;;10.25;;
54823;SDS011;40724;53.196;5.980;2023-03-01T03:48:07;15.20;;;6.35;;
54823;SDS011;40724;53.196;5.980;2023-03-01T03:50:34;26.20;;;8.40;;
54823;SDS011;40724;53.196;5.980;2023-03-01T03:53:01;26.05;;;7.65;;
54823;SDS011;40724;53.196;5.980;2023-03-01T03:55:28;45.20;;;7.32;;
54823;SDS011;40724;53.196;5.980;2023-03-01T03:57:57;11.10;;;6.30;;
54823;SDS011;40724;53.196;5.980;2023-03-01T04:00:23;10.10;;;5.78;;
54823;SDS011;40724;53.196;5.980;2023-03-01T04:02:50;10.05;;;6.07;;
54823;SDS011;40724;53.196;5.980;2023-03-01T04:05:17;11.70;;;7.40;;
54823;SDS011;40724;53.196;5.980;2023-03-01T04:07:44;8.32;;;6.18;;
54823;SDS011;40724;53.196;5.980;2023-03-01T04:10:15;10.32;;;6.45;;
54823;SDS011;40724;53.196;5.980;2023-03-01T04:12:42;9.52;;;6.28;;
54823;SDS011;40724;53.196;5.980;2023-03-01T04:15:08;9.70;;;6.75;;
54823;SDS011;40724;53.196;5.980;2023-03-01T04:17:39;9.93;;;6.78;;
54823;SDS011;40724;53.196;5.980;2023-03-01T04:20:05;11.32;;;7.30;;
54823;SDS011;40724;53.196;5.980;2023-03-01T04:22:32;11.95;;;7.70;;
54823;SDS011;40724;53.196;5.980;2023-03-01T04:24:58;13.20;;;6.60;;
54823;SDS011;40724;53.196;5.980;2023-03-01T04:27:33;11.80;;;6.82;;
54823;SDS011;40724;53.196;5.980;2023-03-01T04:30:00;9.43;;;5.78;;
54823;SDS011;40724;53.196;5.980;2023-03-01T04:32:26;8.82;;;5.63;;
54823;SDS011;40724;53.196;5.980;2023-03-01T04:34:52;8.18;;;6.22;;
54823;SDS011;40724;53.196;5.980;2023-03-01T04:37:18;9.45;;;6.30;;
54823;SDS011;40724;53.196;5.980;2023-03-01T04:39:44;10.15;;;6.40;;
54823;SDS011;40724;53.196;5.980;2023-03-01T04:42:11;8.63;;;5.45;;
54823;SDS011;40724;53.196;5.980;2023-03-01T04:44:37;8.70;;;5.45;;
54823;SDS011;40724;53.196;5.980;2023-03-01T04:47:03;9.70;;;5.85;;
54823;SDS011;40724;53.196;5.980;2023-03-01T04:49:29;5.82;;;4.93;;
54823;SDS011;40724;53.196;5.980;2023-03-01T04:51:56;8.95;;;5.60;;
54823;SDS011;40724;53.196;5.980;2023-03-01T04:54:33;9.10;;;6.18;;
54823;SDS011;40724;53.196;5.980;2023-03-01T04:57:00;8.63;;;5.63;;
54823;SDS011;40724;53.196;5.980;2023-03-01T04:59:26;7.82;;;5.15;;
54823;SDS011;40724;53.196;5.980;2023-03-01T05:01:53;8.38;;;5.72;;
54823;SDS011;40724;53.196;5.980;2023-03-01T05:04:21;6.57;;;5.22;;
54823;SDS011;40724;53.196;5.980;2023-03-01T05:06:47;9.70;;;6.05;;
54823;SDS011;40724;53.196;5.980;2023-03-01T05:09:13;11.65;;;6.60;;
54823;SDS011;40724;53.196;5.980;2023-03-01T05:11:39;7.47;;;5.47;;
54823;SDS011;40724;53.196;5.980;2023-03-01T05:14:06;8.10;;;5.60;;
54823;SDS011;40724;53.196;5.980;2023-03-01T05:16:32;7.80;;;5.70;;
54823;SDS011;40724;53.196;5.980;2023-03-01T05:18:59;9.52;;;5.95;;
54823;SDS011;40724;53.196;5.980;2023-03-01T05:21:25;9.90;;;6.43;;
54823;SDS011;40724;53.196;5.980;2023-03-01T05:23:51;7.68;;;5.47;;
54823;SDS011;40724;53.196;5.980;2023-03-01T05:26:18;9.10;;;6.10;;
54823;SDS011;40724;53.196;5.980;2023-03-01T05:28:44;7.65;;;5.30;;
54823;SDS011;40724;53.196;5.980;2023-03-01T05:31:11;12.27;;;5.88;;
54823;SDS011;40724;53.196;5.980;2023-03-01T05:33:37;8.57;;;4.93;;
54823;SDS011;40724;53.196;5.980;2023-03-01T05:36:04;8.48;;;5.45;;
54823;SDS011;40724;53.196;5.980;2023-03-01T05:38:30;8.80;;;5.82;;
54823;SDS011;40724;53.196;5.980;2023-03-01T05:40:56;6.07;;;4.55;;
54823;SDS011;40724;53.196;5.980;2023-03-01T05:43:22;7.25;;;5.18;;
54823;SDS011;40724;53.196;5.980;2023-03-01T05:45:48;9.57;;;5.47;;
54823;SDS011;40724;53.196;5.980;2023-03-01T05:48:14;7.68;;;5.25;;
54823;SDS011;40724;53.196;5.980;2023-03-01T05:50:42;7.38;;;5.05;;
54823;SDS011;40724;53.196;5.980;2023-03-01T05:53:18;11.77;;;5.95;;
54823;SDS011;40724;53.196;5.980;2023-03-01T05:55:48;7.45;;;4.57;;
54823;SDS011;40724;53.196;5.980;2023-03-01T05:58:16;8.60;;;5.60;;
54823;SDS011;40724;53.196;5.980;2023-03-01T06:00:43;11.65;;;6.55;;
54823;SDS011;40724;53.196;5.980;2023-03-01T06:03:12;7.15;;;5.60;;
54823;SDS011;40724;53.196;5.980;2023-03-01T06:05:39;9.70;;;6.43;;
54823;SDS011;40724;53.196;5.980;2023-03-01T06:08:06;8.02;;;4.55;;
54823;SDS011;40724;53.196;5.980;2023-03-01T06:10:32;7.07;;;6.13;;
54823;SDS011;40724;53.196;5.980;2023-03-01T06:12:58;12.35;;;6.15;;
54823;SDS011;40724;53.196;5.980;2023-03-01T06:15:24;8.98;;;5.68;;
54823;SDS011;40724;53.196;5.980;2023-03-01T06:17:51;8.25;;;6.00;;
54823;SDS011;40724;53.196;5.980;2023-03-01T06:20:18;9.77;;;6.22;;
54823;SDS011;40724;53.196;5.980;2023-03-01T06:22:45;14.32;;;6.47;;
54823;SDS011;40724;53.196;5.980;2023-03-01T06:25:12;14.52;;;7.50;;
54823;SDS011;40724;53.196;5.980;2023-03-01T06:27:38;12.60;;;7.10;;
54823;SDS011;40724;53.196;5.980;2023-03-01T06:30:05;8.32;;;5.75;;
54823;SDS011;40724;53.196;5.980;2023-03-01T06:32:33;10.43;;;5.45;;
54823;SDS011;40724;53.196;5.980;2023-03-01T06:34:59;7.53;;;5.97;;
54823;SDS011;40724;53.196;5.980;2023-03-01T06:37:25;11.93;;;6.95;;
54823;SDS011;40724;53.196;5.980;2023-03-01T06:39:51;9.02;;;6.78;;
54823;SDS011;40724;53.196;5.980;2023-03-01T06:42:18;9.40;;;6.40;;
54823;SDS011;40724;53.196;5.980;2023-03-01T06:44:44;10.82;;;6.55;;
54823;SDS011;40724;53.196;5.980;2023-03-01T06:47:11;9.68;;;7.03;;
54823;SDS011;40724;53.196;5.980;2023-03-01T06:49:37;11.70;;;7.55;;
54823;SDS011;40724;53.196;5.980;2023-03-01T06:52:03;12.43;;;8.32;;
54823;SDS011;40724;53.196;5.980;2023-03-01T06:54:29;12.65;;;8.10;;
54823;SDS011;40724;53.196;5.980;2023-03-01T06:56:55;14.98;;;8.40;;
54823;SDS011;40724;53.196;5.980;2023-03-01T06:59:21;12.07;;;8.18;;
54823;SDS011;40724;53.196;5.980;2023-03-01T07:01:47;15.23;;;8.73;;
54823;SDS011;40724;53.196;5.980;2023-03-01T07:04:14;11.55;;;7.97;;
54823;SDS011;40724;53.196;5.980;2023-03-01T07:06:40;13.57;;;8.38;;
54823;SDS011;40724;53.196;5.980;2023-03-01T07:09:06;16.17;;;8.93;;
54823;SDS011;40724;53.196;5.980;2023-03-01T07:11:32;11.45;;;8.93;;
54823;SDS011;40724;53.196;5.980;2023-03-01T07:13:58;13.93;;;9.20;;
54823;SDS011;40724;53.196;5.980;2023-03-01T07:16:25;10.32;;;7.85;;
54823;SDS011;40724;53.196;5.980;2023-03-01T07:18:51;12.75;;;7.53;;
54823;SDS011;40724;53.196;5.980;2023-03-01T07:21:17;18.20;;;8.95;;
54823;SDS011;40724;53.196;5.980;2023-03-01T07:23:46;14.52;;;9.32;;
54823;SDS011;40724;53.196;5.980;2023-03-01T07:26:13;12.88;;;8.23;;
54823;SDS011;40724;53.196;5.980;2023-03-01T07:28:39;13.07;;;9.00;;
54823;SDS011;40724;53.196;5.980;2023-03-01T07:31:05;10.93;;;7.75;;
54823;SDS011;40724;53.196;5.980;2023-03-01T07:33:32;9.93;;;7.18;;
54823;SDS011;40724;53.196;5.980;2023-03-01T07:36:02;11.15;;;9.02;;
54823;SDS011;40724;53.196;5.980;2023-03-01T07:38:29;11.95;;;7.10;;
54823;SDS011;40724;53.196;5.980;2023-03-01T07:41:02;11.52;;;7.38;;
54823;SDS011;40724;53.196;5.980;2023-03-01T07:43:29;10.63;;;7.47;;
54823;SDS011;40724;53.196;5.980;2023-03-01T07:45:59;11.30;;;7.82;;
54823;SDS011;40724;53.196;5.980;2023-03-01T07:48:25;11.73;;;8.10;;
54823;SDS011;40724;53.196;5.980;2023-03-01T07:50:52;11.48;;;8.27;;
54823;SDS011;40724;53.196;5.980;2023-03-01T07:53:18;13.05;;;9.50;;
54823;SDS011;40724;53.196;5.980;2023-03-01T07:55:44;12.35;;;8.27;;
54823;SDS011;40724;53.196;5.980;2023-03-01T07:58:10;13.32;;;9.45;;
54823;SDS011;40724;53.196;5.980;2023-03-01T08:00:36;9.40;;;7.78;;
54823;SDS011;40724;53.196;5.980;2023-03-01T08:03:02;12.73;;;8.43;;
54823;SDS011;40724;53.196;5.980;2023-03-01T08:05:28;11.80;;;8.60;;
54823;SDS011;40724;53.196;5.980;2023-03-01T08:07:54;16.45;;;9.00;;
54823;SDS011;40724;53.196;5.980;2023-03-01T08:10:21;12.20;;;8.60;;
54823;SDS011;40724;53.196;5.980;2023-03-01T08:12:47;12.63;;;8.60;;
54823;SDS011;40724;53.196;5.980;2023-03-01T08:15:13;19.85;;;9.07;;
54823;SDS011;40724;53.196;5.980;2023-03-01T08:17:39;16.98;;;9.55;;
54823;SDS011;40724;53.196;5.980;2023-03-01T08:20:05;11.63;;;8.13;;
54823;SDS011;40724;53.196;5.980;2023-03-01T08:22:32;11.10;;;8.05;;
54823;SDS011;40724;53.196;5.980;2023-03-01T08:24:58;11.60;;;8.88;;
54823;SDS011;40724;53.196;5.980;2023-03-01T08:27:24;13.43;;;9.07;;
54823;SDS011;40724;53.196;5.980;2023-03-01T08:29:50;15.85;;;9.07;;
54823;SDS011;40724;53.196;5.980;2023-03-01T08:32:16;10.98;;;8.15;;
54823;SDS011;40724;53.196;5.980;2023-03-01T08:34:45;12.38;;;8.70;;
54823;SDS011;40724;53.196;5.980;2023-03-01T08:37:11;10.20;;;8.32;;
54823;SDS011;40724;53.196;5.980;2023-03-01T08:39:38;10.98;;;8.07;;
54823;SDS011;40724;53.196;5.980;2023-03-01T08:42:04;11.25;;;8.70;;
54823;SDS011;40724;53.196;5.980;2023-03-01T08:44:30;11.40;;;8.30;;
54823;SDS011;40724;53.196;5.980;2023-03-01T08:46:56;15.75;;;9.43;;
54823;SDS011;40724;53.196;5.980;2023-03-01T08:49:23;16.30;;;8.98;;
54823;SDS011;40724;53.196;5.980;2023-03-01T08:51:49;13.18;;;9.13;;
54823;SDS011;40724;53.196;5.980;2023-03-01T08:54:16;14.98;;;9.57;;
54823;SDS011;40724;53.196;5.980;2023-03-01T08:56:43;13.20;;;9.70;;
54823;SDS011;40724;53.196;5.980;2023-03-01T08:59:10;18.15;;;10.45;;
54823;SDS011;40724;53.196;5.980;2023-03-01T09:01:36;12.55;;;9.48;;
54823;SDS011;40724;53.196;5.980;2023-03-01T09:04:03;19.95;;;9.20;;
54823;SDS011;40724;53.196;5.980;2023-03-01T09:06:32;12.90;;;10.05;;
54823;SDS011;40724;53.196;5.980;2023-03-01T09:08:59;13.82;;;10.07;;
54823;SDS011;40724;53.196;5.980;2023-03-01T09:11:26;14.52;;;10.50;;
54823;SDS011;40724;53.196;5.980;2023-03-01T09:13:52;15.35;;;10.32;;
54823;SDS011;40724;53.196;5.980;2023-03-01T09:16:19;17.60;;;9.95;;
54823;SDS011;40724;53.196;5.980;2023-03-01T09:18:48;15.38;;;11.02;;
54823;SDS011;40724;53.196;5.980;2023-03-01T09:21:15;19.27;;;11.65;;
54823;SDS011;40724;53.196;5.980;2023-03-01T09:23:45;14.27;;;10.77;;
54823;SDS011;40724;53.196;5.980;2023-03-01T09:26:18;16.85;;;11.93;;
54823;SDS011;40724;53.196;5.980;2023-03-01T09:28:45;19.50;;;11.70;;
54823;SDS011;40724;53.196;5.980;2023-03-01T09:31:11;17.67;;;11.55;;
54823;SDS011;40724;53.196;5.980;2023-03-01T09:33:38;17.83;;;12.15;;
54823;SDS011;40724;53.196;5.980;2023-03-01T09:36:05;18.40;;;13.38;;
54823;SDS011;40724;53.196;5.980;2023-03-01T09:38:32;17.48;;;11.77;;
54823;SDS011;40724;53.196;5.980;2023-03-01T09:40:59;16.65;;;12.32;;
54823;SDS011;40724;53.196;5.980;2023-03-01T09:43:29;17.30;;;12.10;;
54823;SDS011;40724;53.196;5.980;2023-03-01T09:45:59;20.83;;;12.55;;
54823;SDS011;40724;53.196;5.980;2023-03-01T09:48:26;18.75;;;12.73;;
54823;SDS011;40724;53.196;5.980;2023-03-01T09:50:53;20.33;;;13.05;;
54823;SDS011;40724;53.196;5.980;2023-03-01T09:53:20;16.85;;;12.38;;
54823;SDS011;40724;53.196;5.980;2023-03-01T10:00:47;18.48;;;11.73;;
54823;SDS011;40724;53.196;5.980;2023-03-01T10:03:21;16.27;;;12.38;;
54823;SDS011;40724;53.196;5.980;2023-03-01T10:05:53;16.10;;;12.07;;
54823;SDS011;40724;53.196;5.980;2023-03-01T10:11:22;18.00;;;12.40;;
54823;SDS011;40724;53.196;5.980;2023-03-01T10:13:55;17.77;;;11.98;;
54823;SDS011;40724;53.196;5.980;2023-03-01T10:16:45;16.45;;;11.63;;
54823;SDS011;40724;53.196;5.980;2023-03-01T10:19:49;16.80;;;12.88;;
54823;SDS011;40724;53.196;5.980;2023-03-01T10:22:27;18.73;;;13.63;;
54823;SDS011;40724;53.196;5.980;2023-03-01T10:24:56;22.38;;;15.68;;
54823;SDS011;40724;53.196;5.980;2023-03-01T10:27:29;20.02;;;13.43;;
54823;SDS011;40724;53.196;5.980;2023-03-01T10:30:07;19.83;;;14.48;;
54823;SDS011;40724;53.196;5.980;2023-03-01T10:32:54;20.65;;;15.35;;
54823;SDS011;40724;53.196;5.980;2023-03-01T10:35:26;23.60;;;14.45;;
54823;SDS011;40724;53.196;5.980;2023-03-01T10:38:02;21.90;;;13.85;;
54823;SDS011;40724;53.196;5.980;2023-03-01T10:40:28;19.58;;;13.10;;
54823;SDS011;40724;53.196;5.980;2023-03-01T10:42:54;23.15;;;15.85;;
54823;SDS011;40724;53.196;5.980;2023-03-01T10:50:30;21.55;;;15.18;;
54823;SDS011;40724;53.196;5.980;2023-03-01T10:53:00;28.58;;;16.70;;
54823;SDS011;40724;53.196;5.980;2023-03-01T10:55:28;22.77;;;15.38;;
54823;SDS011;40724;53.196;5.980;2023-03-01T10:58:07;22.63;;;15.55;;
54823;SDS011;40724;53.196;5.980;2023-03-01T11:00:34;28.23;;;15.30;;
54823;SDS011;40724;53.196;5.980;2023-03-01T11:03:12;24.13;;;14.98;;
54823;SDS011;40724;53.196;5.980;2023-03-01T11:05:55;22.83;;;15.48;;
54823;SDS011;40724;53.196;5.980;2023-03-01T11:08:42;24.05;;;16.27;;
54823;SDS011;40724;53.196;5.980;2023-03-01T11:16:41;27.25;;;15.25;;
54823;SDS011;40724;53.196;5.980;2023-03-01T11:21:40;19.05;;;13.52;;
54823;SDS011;40724;53.196;5.980;2023-03-01T11:24:11;23.38;;;13.77;;
54823;SDS011;40724;53.196;5.980;2023-03-01T11:26:39;18.67;;;12.85;;
54823;SDS011;40724;53.196;5.980;2023-03-01T11:29:07;15.93;;;12.43;;
54823;SDS011;40724;53.196;5.980;2023-03-01T11:31:38;19.25;;;14.40;;
54823;SDS011;40724;53.196;5.980;2023-03-01T11:34:13;19.33;;;13.00;;
54823;SDS011;40724;53.196;5.980;2023-03-01T11:44:56;17.05;;;11.63;;
54823;SDS011;40724;53.196;5.980;2023-03-01T11:50:17;19.70;;;12.85;;
54823;SDS011;40724;53.196;5.980;2023-03-01T11:53:05;17.35;;;12.85;;
54823;SDS011;40724;53.196;5.980;2023-03-01T11:56:03;18.13;;;13.70;;
54823;SDS011;40724;53.196;5.980;2023-03-01T12:03:32;17.20;;;12.13;;
54823;SDS011;40724;53.196;5.980;2023-03-01T12:30:21;17.05;;;12.80;;
54823;SDS011;40724;53.196;5.980;2023-03-01T12:38:50;15.20;;;11.52;;
54823;SDS011;40724;53.196;5.980;2023-03-01T12:44:24;17.48;;;12.88;;
54823;SDS011;40724;53.196;5.980;2023-03-01T12:47:26;17.80;;;10.70;;
54823;SDS011;40724;53.196;5.980;2023-03-01T12:50:15;13.90;;;10.50;;
54823;SDS011;40724;53.196;5.980;2023-03-01T12:55:20;12.65;;;10.30;;
54823;SDS011;40724;53.196;5.980;2023-03-01T12:57:57;16.30;;;10.85;;
54823;SDS011;40724;53.196;5.980;2023-03-01T13:08:30;16.00;;;10.82;;
54823;SDS011;40724;53.196;5.980;2023-03-01T13:11:01;16.23;;;10.90;;
54823;SDS011;40724;53.196;5.980;2023-03-01T13:13:29;13.20;;;10.63;;
54823;SDS011;40724;53.196;5.980;2023-03-01T13:15:55;16.38;;;10.63;;
54823;SDS011;40724;53.196;5.980;2023-03-01T13:20:49;16.77;;;11.10;;
54823;SDS011;40724;53.196;5.980;2023-03-01T13:28:38;16.08;;;11.70;;
54823;SDS011;40724;53.196;5.980;2023-03-01T13:31:08;14.07;;;10.38;;
54823;SDS011;40724;53.196;5.980;2023-03-01T13:33:47;15.18;;;10.82;;
54823;SDS011;40724;53.196;5.980;2023-03-01T13:47:36;15.00;;;10.85;;
54823;SDS011;40724;53.196;5.980;2023-03-01T13:57:39;15.65;;;10.98;;
54823;SDS011;40724;53.196;5.980;2023-03-01T14:00:07;13.38;;;10.27;;
54823;SDS011;40724;53.196;5.980;2023-03-01T14:03:03;15.43;;;10.63;;
54823;SDS011;40724;53.196;5.980;2023-03-01T14:05:41;17.75;;;10.82;;
54823;SDS011;40724;53.196;5.980;2023-03-01T14:08:29;16.85;;;11.00;;
54823;SDS011;40724;53.196;5.980;2023-03-01T14:24:55;13.82;;;10.35;;
54823;SDS011;40724;53.196;5.980;2023-03-01T14:27:27;12.25;;;9.70;;
54823;SDS011;40724;53.196;5.980;2023-03-01T14:30:03;14.18;;;10.45;;
54823;SDS011;40724;53.196;5.980;2023-03-01T14:32:42;12.30;;;9.90;;
54823;SDS011;40724;53.196;5.980;2023-03-01T14:35:53;12.35;;;9.15;;
54823;SDS011;40724;53.196;5.980;2023-03-01T14:37:57;16.67;;;10.55;;
54823;SDS011;40724;53.196;5.980;2023-03-01T14:40:31;15.82;;;11.38;;
54823;SDS011;40724;53.196;5.980;2023-03-01T14:43:00;15.27;;;10.23;;
54823;SDS011;40724;53.196;5.980;2023-03-01T14:45:33;14.88;;;9.07;;
54823;SDS011;40724;53.196;5.980;2023-03-01T14:47:59;14.45;;;10.13;;
54823;SDS011;40724;53.196;5.980;2023-03-01T14:50:31;12.27;;;8.57;;
54823;SDS011;40724;53.196;5.980;2023-03-01T14:53:05;12.93;;;9.43;;
54823;SDS011;40724;53.196;5.980;2023-03-01T14:55:37;12.18;;;9.10;;
54823;SDS011;40724;53.196;5.980;2023-03-01T14:58:09;16.20;;;9.90;;
54823;SDS011;40724;53.196;5.980;2023-03-01T15:00:38;10.25;;;8.88;;
54823;SDS011;40724;53.196;5.980;2023-03-01T15:03:17;13.48;;;9.35;;
54823;SDS011;40724;53.196;5.980;2023-03-01T15:05:49;13.63;;;9.13;;
54823;SDS011;40724;53.196;5.980;2023-03-01T15:08:18;12.85;;;9.23;;
54823;SDS011;40724;53.196;5.980;2023-03-01T15:11:00;13.60;;;9.60;;
54823;SDS011;40724;53.196;5.980;2023-03-01T15:13:29;16.23;;;10.45;;
54823;SDS011;40724;53.196;5.980;2023-03-01T15:16:03;17.33;;;9.95;;
54823;SDS011;40724;53.196;5.980;2023-03-01T15:18:35;15.75;;;10.95;;
54823;SDS011;40724;53.196;5.980;2023-03-01T15:21:09;20.02;;;9.77;;
54823;SDS011;40724;53.196;5.980;2023-03-01T15:23:41;17.10;;;9.65;;
54823;SDS011;40724;53.196;5.980;2023-03-01T15:26:17;12.40;;;9.15;;
54823;SDS011;40724;53.196;5.980;2023-03-01T15:28:53;15.10;;;10.18;;
54823;SDS011;40724;53.196;5.980;2023-03-01T15:31:24;15.50;;;9.02;;
54823;SDS011;40724;53.196;5.980;2023-03-01T15:33:52;13.75;;;9.85;;
54823;SDS011;40724;53.196;5.980;2023-03-01T15:36:46;13.52;;;10.50;;
54823;SDS011;40724;53.196;5.980;2023-03-01T15:41:53;17.17;;;10.32;;
54823;SDS011;40724;53.196;5.980;2023-03-01T15:44:27;13.07;;;10.07;;
54823;SDS011;40724;53.196;5.980;2023-03-01T15:46:54;15.57;;;9.57;;
54823;SDS011;40724;53.196;5.980;2023-03-01T15:49:31;14.48;;;10.50;;
54823;SDS011;40724;53.196;5.980;2023-03-01T15:52:25;14.35;;;10.23;;
54823;SDS011;40724;53.196;5.980;2023-03-01T15:55:00;15.32;;;9.48;;
54823;SDS011;40724;53.196;5.980;2023-03-01T15:57:28;15.52;;;9.50;;
54823;SDS011;40724;53.196;5.980;2023-03-01T15:59:54;12.98;;;9.95;;
54823;SDS011;40724;53.196;5.980;2023-03-01T16:02:20;12.93;;;8.77;;
54823;SDS011;40724;53.196;5.980;2023-03-01T16:04:46;10.15;;;9.02;;
54823;SDS011;40724;53.196;5.980;2023-03-01T16:07:13;13.55;;;9.77;;
54823;SDS011;40724;53.196;5.980;2023-03-01T16:09:39;12.27;;;8.30;;
54823;SDS011;40724;53.196;5.980;2023-03-01T16:12:08;13.77;;;9.07;;
54823;SDS011;40724;53.196;5.980;2023-03-01T16:14:41;12.05;;;8.85;;
54823;SDS011;40724;53.196;5.980;2023-03-01T16:17:07;12.75;;;8.18;;
54823;SDS011;40724;53.196;5.980;2023-03-01T16:19:35;10.98;;;8.18;;
54823;SDS011;40724;53.196;5.980;2023-03-01T16:22:02;12.73;;;8.70;;
54823;SDS011;40724;53.196;5.980;2023-03-01T16:24:29;11.80;;;8.07;;
54823;SDS011;40724;53.196;5.980;2023-03-01T16:26:55;10.75;;;9.63;;
54823;SDS011;40724;53.196;5.980;2023-03-01T16:29:21;15.27;;;10.45;;
54823;SDS011;40724;53.196;5.980;2023-03-01T16:31:47;13.80;;;9.80;;
54823;SDS011;40724;53.196;5.980;2023-03-01T16:34:14;10.63;;;9.23;;
54823;SDS011;40724;53.196;5.980;2023-03-01T16:36:40;15.50;;;11.20;;
54823;SDS011;40724;53.196;5.980;2023-03-01T16:39:08;14.88;;;10.23;;
54823;SDS011;40724;53.196;5.980;2023-03-01T16:41:34;18.17;;;12.60;;
54823;SDS011;40724;53.196;5.980;2023-03-01T16:44:00;17.23;;;12.52;;
54823;SDS011;40724;53.196;5.980;2023-03-01T16:46:26;19.63;;;13.23;;
54823;SDS011;40724;53.196;5.980;2023-03-01T16:48:54;18.95;;;13.32;;
54823;SDS011;40724;53.196;5.980;2023-03-01T16:51:20;20.25;;;14.57;;